Time;durP1;ratioP1;P1;durP2;ratioP2;P2;SDS_P1;SDS_P2;PMS_P1;PMS_P2;Temp;Humidity;BMP_temperature;BMP_pressure;BME280_temperature;BME280_humidity;BME280_pressure;Samples;Min_cycle;Max_cycle;Signal;HPM_P1;HPM_P2
2022/07/25 00:00:56;;;;;;;;;;;;;;;21.19;54.93;100059.53;6273729;28;20053;-73
2022/07/25 00:03:58;;;;;;;6.90;3.90;;;;;;;21.13;55.91;100061.06;6274245;28;19990;-73
2022/07/25 00:06:59;;;;;;;10.02;4.28;;;;;;;21.00;56.27;100058.88;6256437;28;20383;-70
2022/07/25 00:10:00;;;;;;;5.57;3.43;;;;;;;20.98;56.07;100060.84;6256267;28;20064;-70
2022/07/25 00:13:01;;;;;;;7.23;3.67;;;;;;;20.96;56.20;100061.97;6239435;28;20036;-73
2022/07/25 00:16:02;;;;;;;3.90;3.37;;;;;;;20.87;58.26;100069.91;6272885;28;20041;-70
2022/07/25 00:19:03;;;;;;;7.90;3.10;;;;;;;20.81;57.23;100065.22;6239836;28;20044;-70
2022/07/25 00:22:04;;;;;;;5.27;2.90;;;;;;;20.77;56.79;100066.53;6273673;28;20114;-75
2022/07/25 00:25:06;;;;;;;4.90;2.90;;;;;;;20.84;56.64;100061.47;6305017;28;20053;-75
2022/07/25 00:28:08;;;;;;;4.13;2.65;;;;;;;20.77;56.97;100063.06;6271660;28;20096;-70
2022/07/25 00:31:08;;;;;;;5.60;2.83;;;;;;;20.79;57.33;100061.91;6272666;28;20041;-71
2022/07/25 00:34:09;;;;;;;5.47;3.10;;;;;;;20.77;57.76;100061.25;6254802;28;20048;-75
2022/07/25 00:37:11;;;;;;;5.75;2.92;;;;;;;20.67;58.12;100065.84;6304847;28;20040;-71
2022/07/25 00:40:12;;;;;;;6.43;3.00;;;;;;;20.65;58.49;100063.38;6271443;28;20044;-71
2022/07/25 00:43:13;;;;;;;3.37;2.90;;;;;;;20.59;58.83;100061.34;6272501;28;20128;-70
2022/07/25 00:46:19;;;;;;;5.90;3.25;;;;;;;20.52;58.68;100061.09;6271182;28;20519;-70
2022/07/25 00:49:21;;;;;;;4.38;2.78;;;;;;;20.51;58.79;100063.94;6254539;28;20064;-74
2022/07/25 00:52:23;;;;;;;5.00;2.75;;;;;;;20.49;59.48;100066.72;6254751;28;20067;-75
2022/07/25 00:55:26;;;;;;;4.18;2.70;;;;;;;20.43;60.23;100063.88;6270206;28;20092;-74
2022/07/25 00:58:30;;;;;;;4.78;3.10;;;;;;;20.37;61.66;100059.22;6272047;28;20400;-71
2022/07/25 01:01:31;;;;;;;3.58;2.65;;;;;;;20.31;61.84;100055.34;6272054;28;20045;-70
2022/07/25 01:04:35;;;;;;;7.13;3.03;;;;;;;20.17;61.22;100054.09;6254338;28;20037;-71
2022/07/25 01:07:37;;;;;;;3.95;2.83;;;;;;;20.05;62.28;100065.94;6270744;28;20447;-71
2022/07/25 01:10:38;;;;;;;4.63;3.15;;;;;;;20.01;62.24;100069.88;6270596;28;20040;-70
2022/07/25 01:13:42;;;;;;;4.57;2.85;;;;;;;19.91;62.93;100070.81;6271910;28;20093;-70
2022/07/25 01:16:43;;;;;;;3.60;2.75;;;;;;;19.93;63.52;100063.56;6254346;28;20115;-71
2022/07/25 01:19:46;;;;;;;6.32;2.88;;;;;;;19.75;63.09;100059.25;6270611;28;20041;-70
2022/07/25 01:22:47;;;;;;;3.38;2.80;;;;;;;19.75;66.38;100052.16;6287244;28;20469;-70
2022/07/25 01:25:48;;;;;;;3.63;2.92;;;;;;;19.69;64.67;100052.72;6287037;28;20144;-71
2022/07/25 01:28:49;;;;;;;5.73;3.23;;;;;;;19.65;64.35;100054.03;6271703;28;20079;-72
2022/07/25 01:31:50;;;;;;;4.72;2.78;;;;;;;19.65;64.87;100052.19;6270314;28;20048;-71
2022/07/25 01:34:51;;;;;;;4.90;2.60;;;;;;;19.59;65.16;100052.81;6270216;28;20462;-70
2022/07/25 01:37:52;;;;;;;12.23;3.00;;;;;;;19.39;64.80;100051.28;6270098;28;20041;-71
2022/07/25 01:40:53;;;;;;;3.90;3.00;;;;;;;19.28;66.11;100057.66;6253606;28;20041;-71
2022/07/25 01:43:56;;;;;;;4.40;3.13;;;;;;;19.14;66.17;100064.25;6237159;28;20052;-74
2022/07/25 01:46:58;;;;;;;4.63;3.17;;;;;;;19.18;66.01;100059.50;6270192;28;20487;-74
2022/07/25 01:49:59;;;;;;;3.80;3.10;;;;;;;19.20;66.63;100054.91;6253121;28;20053;-75
2022/07/25 01:53:00;;;;;;;6.17;3.23;;;;;;;18.99;66.58;100057.81;6253501;28;20446;-75
2022/07/25 01:56:02;;;;;;;4.40;3.00;;;;;;;18.96;67.07;100058.09;6271124;28;20037;-74
2022/07/25 01:59:03;;;;;;;6.22;3.50;;;;;;;18.88;68.17;100053.56;6253247;28;20113;-74
2022/07/25 02:02:05;;;;;;;4.37;3.50;;;;;;;18.83;68.07;100056.63;6236925;28;20442;-75
2022/07/25 02:05:07;;;;;;;;;;;;;;;18.85;68.54;100057.31;6272634;28;20044;-75
2022/07/25 02:08:08;;;;;;;6.13;2.95;;;;;;;18.64;69.17;100046.97;6276153;28;20413;-75
2022/07/25 02:11:09;;;;;;;7.60;3.20;;;;;;;18.63;69.58;100049.75;6274759;28;20045;-74
2022/07/25 02:14:11;;;;;;;5.72;3.45;;;;;;;18.78;68.68;100050.94;6274809;28;20430;-75
2022/07/25 02:17:12;;;;;;;;;;;;;;;18.70;68.83;100049.03;6275052;28;20056;-74
2022/07/25 02:20:13;;;;;;;5.90;3.00;;;;;;;18.63;69.78;100055.84;6276415;28;19925;-74
2022/07/25 02:23:14;;;;;;;3.90;2.95;;;;;;;18.59;69.86;100051.00;6258853;28;20053;-71
2022/07/25 02:26:15;;;;;;;4.60;3.38;;;;;;;18.66;70.03;100049.47;6242565;28;20500;-75
2022/07/25 02:29:16;;;;;;;3.70;3.35;;;;;;;18.60;70.73;100050.06;6276317;28;20476;-74
2022/07/25 02:32:17;;;;;;;6.32;3.30;;;;;;;18.56;71.41;100056.59;6258734;28;20483;-74
2022/07/25 02:35:18;;;;;;;4.95;3.80;;;;;;;18.67;71.09;100057.22;6258658;28;20056;-74
2022/07/25 02:38:19;;;;;;;9.87;3.97;;;;;;;18.48;71.92;100055.50;6274980;28;20065;-74
2022/07/25 02:41:21;;;;;;;7.20;3.45;;;;;;;18.57;71.20;100050.31;6275747;28;20484;-71
2022/07/25 02:44:22;;;;;;;4.63;3.25;;;;;;;18.50;72.46;100050.91;6276019;28;20049;-74
2022/07/25 02:47:22;;;;;;;6.47;3.58;;;;;;;18.52;72.07;100054.25;6241902;28;20045;-75
2022/07/25 02:50:24;;;;;;;10.35;3.97;;;;;;;18.48;72.44;100063.44;6258074;28;20403;-75
2022/07/25 02:53:25;;;;;;;;;;;;;;;18.50;72.27;100063.28;6275115;28;20037;-74
2022/07/25 02:56:26;;;;;;;4.57;3.38;;;;;;;18.37;73.23;100060.16;6275747;28;19920;-74
2022/07/25 02:59:27;;;;;;;6.47;3.67;;;;;;;18.36;73.15;100056.66;6274861;28;20230;-74
2022/07/25 03:02:28;;;;;;;4.70;3.50;;;;;;;18.38;73.24;100064.44;6258061;28;20479;-74
2022/07/25 03:05:28;;;;;;;5.25;3.28;;;;;;;18.39;73.55;100060.81;6274362;28;20045;-70
2022/07/25 03:08:30;;;;;;;6.57;3.70;;;;;;;18.32;73.83;100060.56;6275627;28;20083;-70
2022/07/25 03:11:32;;;;;;;6.90;3.50;;;;;;;18.39;73.73;100061.66;6275606;28;20041;-70
2022/07/25 03:14:36;;;;;;;6.70;3.40;;;;;;;18.29;74.72;100056.41;6257959;28;20076;-71
2022/07/25 03:17:37;;;;;;;5.45;3.50;;;;;;;18.35;74.48;100067.38;6273424;28;20396;-71
2022/07/25 03:20:39;;;;;;;5.85;3.78;;;;;;;18.29;74.24;100061.69;6273582;28;20594;-70
2022/07/25 03:23:40;;;;;;;4.40;3.63;;;;;;;18.47;73.66;100066.22;6273256;28;20044;-74
2022/07/25 03:26:41;;;;;;;8.50;3.58;;;;;;;18.33;74.58;100072.81;6274357;28;20492;-74
2022/07/25 03:29:42;;;;;;;8.35;3.70;;;;;;;18.31;75.39;100065.00;6272908;28;20037;-74
2022/07/25 03:32:44;;;;;;;5.60;3.85;;;;;;;18.37;74.91;100063.63;6273096;28;20484;-74
2022/07/25 03:35:45;;;;;;;6.55;4.13;;;;;;;18.33;75.01;100067.53;6273127;28;20051;-74
2022/07/25 03:38:46;;;;;;;12.50;3.80;;;;;;;18.39;76.16;100066.94;6273984;28;20495;-74
2022/07/25 03:41:47;;;;;;;5.90;3.80;;;;;;;18.50;75.68;100066.75;6272883;28;20396;-74
2022/07/25 03:44:48;;;;;;;6.75;3.95;;;;;;;18.48;76.16;100073.16;6274070;28;20037;-74
2022/07/25 03:47:49;;;;;;;5.18;4.10;;;;;;;18.47;75.10;100059.13;6272748;28;20045;-71
2022/07/25 03:50:50;;;;;;;7.13;4.07;;;;;;;18.54;75.89;100056.75;6273675;28;20080;-74
2022/07/25 03:54:00;;;;;;;5.80;3.65;;;;;;;18.69;74.44;100059.72;6272636;28;20510;-70
2022/07/25 03:57:01;;;;;;;4.68;4.10;;;;;;;18.60;75.93;100061.44;6241803;28;20128;-74
2022/07/25 04:00:04;;;;;;;7.20;4.00;;;;;;;18.61;76.27;100072.84;6256258;28;20072;-74
2022/07/25 04:03:08;;;;;;;5.07;3.80;;;;;;;18.59;76.51;100065.06;6274366;28;20049;-74
2022/07/25 04:06:13;;;;;;;8.50;4.03;;;;;;;18.66;75.75;100071.44;6256440;28;20471;-75
2022/07/25 04:09:14;;;;;;;6.05;3.90;;;;;;;18.81;73.74;100055.13;6270328;28;20047;-74
2022/07/25 04:12:15;;;;;;;6.20;4.10;;;;;;;18.81;75.98;100065.69;6270556;28;20041;-70
2022/07/25 04:15:18;;;;;;;5.70;3.70;;;;;;;19.00;73.64;100062.13;6271037;28;20049;-71
2022/07/25 04:18:19;;;;;;;7.70;4.28;;;;;;;18.98;73.94;100061.44;6270931;28;20375;-70
2022/07/25 04:21:20;;;;;;;6.80;3.90;;;;;;;19.11;73.68;100064.56;6255503;28;20041;-75
2022/07/25 04:24:21;;;;;;;5.50;3.70;;;;;;;19.17;72.21;100065.78;6263867;28;20053;-70
2022/07/25 04:27:24;;;;;;;8.68;3.92;;;;;;;19.22;73.60;100064.34;6278064;28;20632;-70
2022/07/25 04:30:25;;;;;;;8.02;4.10;;;;;;;19.15;74.11;100060.66;6241068;28;20502;-74
2022/07/25 04:33:29;;;;;;;6.20;3.97;;;;;;;19.25;72.68;100060.56;6280346;28;20056;-75
2022/07/25 04:36:30;;;;;;;7.38;4.25;;;;;;;19.38;71.81;100061.06;6298509;28;20052;-71
2022/07/25 04:39:31;;;;;;;5.28;4.18;;;;;;;19.44;73.49;100057.81;6297276;28;20121;-72
2022/07/25 04:42:34;;;;;;;7.00;4.10;;;;;;;19.42;72.68;100059.78;6278068;28;20051;-71
2022/07/25 04:45:35;;;;;;;4.38;3.92;;;;;;;19.31;72.60;100059.97;6255648;28;20399;-70
2022/07/25 04:48:36;;;;;;;5.90;4.18;;;;;;;19.37;72.21;100066.47;6271944;28;20059;-71
2022/07/25 04:51:37;;;;;;;6.88;4.10;;;;;;;19.58;70.09;100063.53;6271881;28;20049;-71
2022/07/25 04:54:39;;;;;;;10.73;4.40;;;;;;;19.68;69.96;100065.16;6255383;28;20117;-70
2022/07/25 04:57:40;;;;;;;5.47;4.03;;;;;;;19.80;69.60;100070.22;6271676;28;20120;-70
2022/07/25 05:00:41;;;;;;;6.10;4.17;;;;;;;19.80;70.95;100059.63;6271868;28;20045;-70
2022/07/25 05:03:42;;;;;;;5.28;4.28;;;;;;;19.95;68.75;100068.66;6279100;28;20151;-74
2022/07/25 05:06:43;;;;;;;7.53;4.10;;;;;;;20.03;67.80;100067.91;6296432;28;20052;-75
2022/07/25 05:09:44;;;;;;;8.23;3.57;;;;;;;20.05;67.28;100063.28;6296242;28;20131;-74
2022/07/25 05:12:46;;;;;;;5.75;3.90;;;;;;;20.12;68.44;100069.66;6294251;28;20044;-70
2022/07/25 05:15:46;;;;;;;6.47;3.65;;;;;;;20.18;66.85;100062.88;6279005;28;20067;-69
2022/07/25 05:18:50;;;;;;;5.23;3.70;;;;;;;20.28;67.94;100066.25;6256853;28;20140;-74
2022/07/25 05:21:51;;;;;;;4.63;3.63;;;;;;;20.36;69.11;100063.66;6270940;28;20060;-69
2022/07/25 05:24:52;;;;;;;6.68;3.50;;;;;;;20.48;67.12;100065.03;6253953;28;20041;-69
2022/07/25 05:27:54;;;;;;;8.38;4.00;;;;;;;20.53;66.87;100067.25;6276389;28;20067;-69
2022/07/25 05:30:55;;;;;;;7.25;3.55;;;;;;;20.70;65.50;100052.28;6296267;28;20537;-70
2022/07/25 05:33:56;;;;;;;6.90;3.43;;;;;;;20.75;65.87;100062.41;6312724;28;20052;-71
2022/07/25 05:36:57;;;;;;;9.30;3.53;;;;;;;20.97;63.80;100055.69;6262557;28;20467;-70
2022/07/25 05:39:57;;;;;;;5.23;3.30;;;;;;;21.03;62.01;100060.34;6262313;28;20498;-74
2022/07/25 05:43:02;;;;;;;5.70;3.35;;;;;;;21.20;62.02;100054.09;6296982;28;20094;-75
2022/07/25 05:46:04;;;;;;;4.87;3.10;;;;;;;21.26;61.50;100058.75;6279002;28;20037;-74
2022/07/25 05:49:05;;;;;;;3.85;3.20;;;;;;;21.38;62.15;100048.66;6295799;28;20400;-71
2022/07/25 05:52:07;;;;;;;7.25;3.30;;;;;;;21.52;60.34;100045.38;6262457;28;20080;-70
2022/07/25 05:55:08;;;;;;;4.13;2.57;;;;;;;21.67;59.62;100047.38;6295723;28;20368;-70
2022/07/25 05:58:09;;;;;;;8.23;2.77;;;;;;;21.76;58.90;100049.03;6295511;28;20036;-71
2022/07/25 06:01:15;;;;;;;3.80;2.83;;;;;;;21.62;59.36;100050.53;6295598;28;20528;-71
2022/07/25 06:04:16;;;;;;;5.45;2.70;;;;;;;21.58;58.10;100049.22;6296658;28;20106;-70
2022/07/25 06:07:17;;;;;;;4.90;2.60;;;;;;;21.73;57.79;100044.88;6296505;28;20460;-74
2022/07/25 06:10:19;;;;;;;3.95;2.65;;;;;;;21.87;59.38;100050.53;6295090;28;20544;-71
2022/07/25 06:13:20;;;;;;;;;;;;;;;22.04;58.56;100051.34;6283125;28;20048;-74
2022/07/25 06:16:21;;;;;;;6.72;2.45;;;;;;;22.22;55.95;100052.00;6253749;28;19928;-71
2022/07/25 06:19:23;;;;;;;4.47;2.85;;;;;;;22.37;55.43;100040.69;6270128;28;20053;-70
2022/07/25 06:22:24;;;;;;;3.80;2.60;;;;;;;22.50;55.69;100043.63;6283637;28;20066;-74
2022/07/25 06:25:25;;;;;;;5.03;2.80;;;;;;;22.66;53.93;100037.44;6292892;28;20033;-75
2022/07/25 06:28:30;;;;;;;7.50;2.58;;;;;;;22.86;53.74;100044.00;6286271;28;20055;-74
2022/07/25 06:31:31;;;;;;;3.35;2.50;;;;;;;23.05;52.01;100039.25;6275414;28;20043;-74
2022/07/25 06:34:32;;;;;;;7.73;2.30;;;;;;;23.08;50.13;100037.09;6292337;28;20036;-71
2022/07/25 06:37:37;;;;;;;8.45;2.70;;;;;;;23.32;50.92;100033.44;6294492;28;20052;-72
2022/07/25 06:40:40;;;;;;;5.47;2.60;;;;;;;23.44;49.53;100035.69;6277687;28;20060;-74
2022/07/25 06:43:45;;;;;;;2.88;2.20;;;;;;;23.61;49.29;100037.22;6295174;28;20051;-74
2022/07/25 06:46:49;;;;;;;3.10;2.53;;;;;;;23.84;50.16;100033.72;6294069;28;20119;-71
2022/07/25 06:49:51;;;;;;;9.95;2.13;;;;;;;23.97;48.05;100033.94;6277377;28;20629;-71
2022/07/25 06:52:53;;;;;;;5.80;2.20;;;;;;;24.00;48.13;100043.41;6297658;28;20399;-71
2022/07/25 06:55:54;;;;;;;3.25;2.45;;;;;;;24.26;46.20;100040.31;6298506;28;20040;-74
2022/07/25 06:58:55;;;;;;;3.63;1.90;;;;;;;24.31;45.84;100037.91;6298444;28;20052;-75
2022/07/25 07:01:56;;;;;;;5.47;2.07;;;;;;;24.44;46.11;100029.28;6297864;28;20089;-76
2022/07/25 07:04:57;;;;;;;3.93;2.27;;;;;;;24.60;45.50;100031.78;6296471;28;20384;-74
2022/07/25 07:07:59;;;;;;;2.50;1.90;;;;;;;24.74;44.17;100022.09;6289054;28;20441;-76
2022/07/25 07:11:00;;;;;;;2.47;2.10;;;;;;;25.01;44.18;100033.09;6299097;28;20040;-75
2022/07/25 07:14:02;;;;;;;;;;;;;;;25.07;46.49;100029.66;6298613;28;20133;-70
2022/07/25 07:17:03;;;;;;;2.37;1.97;;;;;;;25.19;43.71;100024.66;6298086;28;20417;-70
2022/07/25 07:20:09;;;;;;;5.18;2.13;;;;;;;25.54;42.63;100031.81;6299034;28;20111;-71
2022/07/25 07:23:10;;;;;;;4.55;1.75;;;;;;;25.50;44.30;100030.53;6299102;28;20402;-70
2022/07/25 07:26:11;;;;;;;6.97;1.80;;;;;;;25.59;42.30;100028.56;6281329;28;20055;-72
2022/07/25 07:29:15;;;;;;;2.63;1.98;;;;;;;25.81;40.22;100032.03;6281183;28;20426;-76
2022/07/25 07:32:16;;;;;;;3.15;1.60;;;;;;;25.85;39.23;100035.97;6281234;28;20073;-76
2022/07/25 07:35:18;;;;;;;4.80;1.90;;;;;;;26.04;38.59;100033.66;6280335;28;20071;-75
2022/07/25 07:38:18;;;;;;;;;;;;;;;26.18;38.45;100034.59;6299248;28;20074;-73
2022/07/25 07:41:20;;;;;;;2.40;1.70;;;;;;;26.45;38.40;100036.38;6280893;28;19935;-71
2022/07/25 07:44:22;;;;;;;4.82;2.00;;;;;;;26.48;37.40;100027.97;6298622;28;20040;-70
2022/07/25 07:47:25;;;;;;;4.93;1.75;;;;;;;26.53;37.58;100030.88;6296846;28;20040;-72
2022/07/25 07:50:27;;;;;;;5.28;1.80;;;;;;;26.62;36.53;100023.53;6280465;28;20052;-69
2022/07/25 07:56:49;;;;;;;6.60;1.75;;;;;;;26.85;36.95;100022.38;6296941;28;20052;-70
2022/07/25 07:59:50;;;;;;;3.75;1.40;;;;;;;27.04;35.72;100031.53;6297091;28;20044;-70
2022/07/25 08:02:53;;;;;;;2.38;1.48;;;;;;;27.08;36.17;100019.38;6280051;28;20049;-71
2022/07/25 08:05:54;;;;;;;2.95;1.60;;;;;;;27.37;38.48;100023.59;6296771;28;20443;-71
2022/07/25 08:08:54;;;;;;;6.60;1.77;;;;;;;27.51;37.42;100017.22;6297862;28;20041;-72
2022/07/25 08:11:55;;;;;;;2.88;1.70;;;;;;;27.64;35.08;100015.56;6296619;28;20456;-71
2022/07/25 08:14:57;;;;;;;1.77;1.40;;;;;;;27.89;33.89;100013.91;6280163;28;20045;-77
2022/07/25 08:18:00;;;;;;;3.80;1.42;;;;;;;28.01;33.38;100010.63;6296588;28;20505;-72
2022/07/25 08:21:04;;;;;;;2.55;1.65;;;;;;;27.63;34.41;100006.69;6263885;28;20126;-71
2022/07/25 08:24:07;;;;;;;3.65;1.40;;;;;;;27.22;34.37;100006.81;6296369;28;20410;-71
2022/07/25 08:27:11;;;;;;;3.42;1.52;;;;;;;27.63;36.95;100001.31;6296212;28;20052;-71
2022/07/25 08:30:19;;;;;;;5.80;2.00;;;;;;;27.82;35.23;100005.03;6277476;28;20445;-72
2022/07/25 08:33:20;;;;;;;4.75;1.70;;;;;;;28.25;34.23;99991.16;6294655;28;20062;-70
2022/07/25 08:36:21;;;;;;;3.20;1.40;;;;;;;28.23;33.66;99989.72;6294357;28;20510;-71
2022/07/25 08:39:23;;;;;;;3.92;1.60;;;;;;;28.25;32.08;99990.31;6278151;28;20455;-71
2022/07/25 08:42:24;;;;;;;3.38;1.45;;;;;;;28.46;33.63;99994.59;6294124;28;20040;-75
2022/07/25 08:45:27;;;;;;;4.30;1.55;;;;;;;28.71;29.42;100005.47;6297094;28;20128;-75
2022/07/25 08:48:30;;;;;;;3.13;1.38;;;;;;;28.83;31.25;99995.72;6296696;28;20044;-76
2022/07/25 08:51:31;;;;;;;2.50;1.50;;;;;;;28.72;31.80;99997.22;6295745;28;20495;-76
2022/07/25 08:54:32;;;;;;;3.08;1.23;;;;;;;28.73;31.12;99995.34;6295981;28;20040;-76
2022/07/25 08:57:42;;;;;;;2.75;1.58;;;;;;;28.93;30.06;100003.28;6295643;28;20083;-72
2022/07/25 09:00:44;;;;;;;3.15;1.30;;;;;;;29.21;30.12;100002.13;6279019;28;20056;-71
2022/07/25 09:03:46;;;;;;;5.25;1.42;;;;;;;29.02;29.27;99993.13;6296686;28;20037;-71
2022/07/25 09:06:51;;;;;;;2.80;1.33;;;;;;;29.53;28.25;99995.66;6278801;28;20072;-71
2022/07/25 09:09:52;;;;;;;7.32;1.27;;;;;;;29.83;29.62;99996.88;6295122;28;20136;-69
2022/07/25 09:13:01;;;;;;;2.17;1.30;;;;;;;29.69;29.78;99988.09;6295296;28;20548;-75
2022/07/25 09:16:04;;;;;;;4.07;1.10;;;;;;;29.80;29.39;99986.59;6295785;28;20040;-74
2022/07/25 09:19:12;;;;;;;1.67;1.40;;;;;;;28.85;30.16;99982.88;6295153;28;20055;-75
2022/07/25 09:22:13;;;;;;;7.70;1.30;;;;;;;29.29;30.32;99983.84;6277239;28;20048;-69
2022/07/25 09:25:24;;;;;;;;;;;;;;;29.28;30.06;99981.38;6275954;28;20040;-70
2022/07/25 09:28:25;;;;;;;1.52;1.42;;;;;;;29.96;28.46;99975.25;6276589;28;19932;-70
2022/07/25 09:31:33;;;;;;;2.72;1.20;;;;;;;30.42;28.75;99975.81;6268337;28;20494;-71
2022/07/25 09:34:40;;;;;;;4.40;1.30;;;;;;;29.93;27.99;99973.81;6274856;28;20079;-71
2022/07/25 09:37:41;;;;;;;6.20;1.20;;;;;;;30.22;29.99;99981.38;6301649;28;20135;-71
2022/07/25 09:40:56;;;;;;;4.68;1.70;;;;;;;30.13;28.31;99978.16;6292924;28;20487;-76
2022/07/25 09:43:59;;;;;;;5.47;1.60;;;;;;;30.26;27.15;99978.00;6291985;28;20033;-69
2022/07/25 09:47:13;;;;;;;3.30;1.52;;;;;;;30.03;28.48;99975.19;6293197;28;20376;-69
2022/07/25 09:50:16;;;;;;;5.53;1.30;;;;;;;30.81;28.75;99970.94;6291392;28;20059;-68
2022/07/25 09:53:18;;;;;;;2.05;1.35;;;;;;;29.88;27.61;99970.97;6293442;28;20487;-68
2022/07/25 09:56:19;;;;;;;3.20;1.67;;;;;;;30.37;26.54;99963.00;6294523;28;20120;-68
2022/07/25 09:59:20;;;;;;;6.55;1.90;;;;;;;30.33;27.96;99965.34;6294670;28;20402;-69
2022/07/25 10:02:44;;;;;;;2.08;1.60;;;;;;;30.80;26.97;99961.22;6293294;28;20052;-71
2022/07/25 10:06:00;;;;;;;3.20;1.50;;;;;;;30.52;26.93;99966.13;6291208;28;20438;-75
2022/07/25 10:09:01;;;;;;;3.88;1.70;;;;;;;30.60;27.56;99961.47;6291933;28;20481;-75
2022/07/25 10:12:10;;;;;;;7.18;1.40;;;;;;;30.77;27.44;99956.28;6258727;28;20045;-77
2022/07/25 10:15:12;;;;;;;4.15;1.83;;;;;;;30.49;28.19;99958.50;6318491;28;20051;-75
2022/07/25 10:18:15;;;;;;;3.15;1.80;;;;;;;30.31;28.04;99953.97;6294344;28;20482;-76
2022/07/25 10:21:17;;;;;;;2.28;1.58;;;;;;;30.93;27.69;99955.69;6295061;28;20053;-75
2022/07/25 10:24:18;;;;;;;3.15;1.80;;;;;;;30.73;27.30;99948.66;6296475;28;20303;-75
2022/07/25 10:27:23;;;;;;;5.60;1.88;;;;;;;30.38;28.12;99945.00;6281707;28;20538;-75
2022/07/25 10:30:26;;;;;;;2.47;1.42;;;;;;;30.62;29.54;99945.91;6299886;28;20132;-75
2022/07/25 10:33:28;;;;;;;2.13;1.70;;;;;;;31.20;27.35;99944.50;6301231;28;20049;-74
2022/07/25 10:36:55;;;;;;;2.70;1.90;;;;;;;30.61;27.79;99949.66;6283103;28;20067;-74
2022/07/25 10:39:57;;;;;;;2.40;1.85;;;;;;;30.73;26.92;99945.97;6293907;28;20045;-70
2022/07/25 10:43:26;;;;;;;3.13;2.00;;;;;;;30.38;28.10;99937.75;6282587;28;20049;-71
2022/07/25 10:46:29;;;;;;;9.35;1.70;;;;;;;31.36;27.81;99941.13;6295464;28;20152;-70
2022/07/25 10:49:36;;;;;;;4.00;1.67;;;;;;;30.84;26.88;99928.19;6299366;28;20471;-75
2022/07/25 10:52:41;;;;;;;3.90;1.65;;;;;;;31.10;26.61;99928.88;6323669;28;20202;-75
2022/07/25 10:55:47;;;;;;;8.15;1.83;;;;;;;31.41;28.03;99927.75;6300418;28;20048;-72
2022/07/25 10:58:59;;;;;;;3.60;1.42;;;;;;;30.75;27.36;99918.81;6267660;28;20049;-71
2022/07/25 11:02:01;;;;;;;2.80;1.50;;;;;;;30.81;25.11;99920.59;6300440;28;20041;-72
2022/07/25 11:05:03;;;;;;;3.03;1.55;;;;;;;30.50;25.92;99911.69;6316337;28;20052;-70
2022/07/25 11:08:06;;;;;;;4.82;1.65;;;;;;;31.16;26.86;99906.41;6315641;28;20055;-70
2022/07/25 11:11:08;;;;;;;6.68;1.70;;;;;;;30.93;26.55;99891.84;6299589;28;20037;-70
2022/07/25 11:14:17;;;;;;;3.60;1.70;;;;;;;31.39;26.67;99900.19;6332173;28;20056;-70
2022/07/25 11:17:21;;;;;;;2.80;1.65;;;;;;;31.33;25.66;99901.94;6299672;28;20045;-69
2022/07/25 11:20:23;;;;;;;2.20;1.55;;;;;;;31.93;23.89;99892.78;6299391;28;20051;-69
2022/07/25 11:23:24;;;;;;;2.95;1.60;;;;;;;31.80;23.92;99892.25;6296630;28;20376;-69
2022/07/25 11:26:25;;;;;;;;;;;;;;;31.58;25.10;99886.63;6280195;28;20131;-69
2022/07/25 11:29:26;;;;;;;2.40;1.70;;;;;;;32.51;26.15;99882.03;6297129;28;19920;-70
2022/07/25 11:32:40;;;;;;;5.68;1.25;;;;;;;32.75;24.19;99881.97;6298768;28;20045;-69
2022/07/25 11:35:42;;;;;;;1.48;1.05;;;;;;;31.49;24.83;99880.78;6298808;28;20040;-69
2022/07/25 11:38:47;;;;;;;;;;;;;;;32.12;23.68;99882.69;6279123;28;20044;-69
2022/07/25 11:41:59;;;;;;;4.82;0.93;;;;;;;31.63;23.91;99870.53;6296438;28;20019;-69
2022/07/25 11:45:01;;;;;;;1.65;1.00;;;;;;;32.33;22.89;99864.19;6297963;28;20040;-69
2022/07/25 11:48:06;;;;;;;;;;;;;;;32.69;23.71;99865.66;6280416;28;20044;-69
2022/07/25 11:51:10;;;;;;;3.90;1.33;;;;;;;31.82;22.62;99860.44;6296440;28;19920;-69
2022/07/25 11:54:12;;;;;;;3.13;1.10;;;;;;;32.13;23.06;99860.03;6297184;28;20049;-74
2022/07/25 11:57:23;;;;;;;2.65;1.25;;;;;;;32.09;22.22;99853.47;6298571;28;20089;-69
2022/07/25 12:00:25;;;;;;;1.48;0.90;;;;;;;32.60;22.24;99847.41;6298382;28;20040;-69
2022/07/25 12:03:37;;;;;;;2.55;1.02;;;;;;;32.45;21.17;99845.22;6297162;28;20494;-68
2022/07/25 12:06:38;;;;;;;1.75;1.00;;;;;;;31.71;21.66;99840.53;6313929;28;20067;-73
2022/07/25 12:09:39;;;;;;;3.10;1.05;;;;;;;32.10;22.12;99833.53;6297030;28;20044;-74
2022/07/25 12:12:41;;;;;;;;;;;;;;;31.92;21.26;99831.00;6280904;28;20033;-71
2022/07/25 12:15:42;;;;;;;4.70;0.90;;;;;;;31.62;22.07;99831.97;6298152;28;19921;-70
2022/07/25 12:18:43;;;;;;;;;;;;;;;32.24;23.10;99828.63;6280793;28;20040;-69
2022/07/25 12:21:44;;;;;;;2.17;1.02;;;;;;;32.77;21.67;99815.81;6297999;28;19924;-73
2022/07/25 12:24:45;;;;;;;;;;;;;;;32.55;22.19;99818.41;6298329;28;20053;-73
2022/07/25 12:27:46;;;;;;;1.98;1.08;;;;;;;32.72;22.43;99804.94;6279982;28;19920;-73
2022/07/25 12:30:48;;;;;;;2.05;1.02;;;;;;;32.84;23.30;99786.75;6279178;28;20044;-74
2022/07/25 12:33:49;;;;;;;2.78;0.93;;;;;;;32.84;23.50;99802.13;6296659;28;20061;-70
2022/07/25 12:36:51;;;;;;;;;;;;;;;32.81;21.58;99794.53;6280152;28;20130;-71
2022/07/25 12:39:58;;;;;;;4.88;1.00;;;;;;;32.45;21.16;99792.06;6275641;28;20294;-70
2022/07/25 12:42:59;;;;;;;1.33;0.77;;;;;;;31.65;20.86;99785.69;6313342;28;20052;-70
2022/07/25 12:46:01;;;;;;;1.38;1.02;;;;;;;31.98;22.27;99783.31;6296033;28;20044;-74
2022/07/25 12:49:02;;;;;;;;;;;;;;;31.88;23.33;99787.47;6295780;28;20040;-70
2022/07/25 12:52:06;;;;;;;3.05;1.15;;;;;;;31.77;22.96;99785.63;6282724;28;19921;-70
2022/07/25 12:55:10;;;;;;;4.82;1.20;;;;;;;31.89;22.01;99774.81;6273948;28;20052;-71
2022/07/25 12:58:13;;;;;;;2.22;1.00;;;;;;;32.37;22.42;99775.41;6317971;28;20049;-70
2022/07/25 13:01:14;;;;;;;3.13;0.80;;;;;;;32.01;21.24;99775.59;6298883;28;20052;-70
2022/07/25 13:04:15;;;;;;;;;;;;;;;32.01;23.23;99761.31;6271384;28;20041;-70
2022/07/25 13:07:19;;;;;;;1.00;0.95;;;;;;;31.97;21.63;99754.72;6272127;28;19974;-70
2022/07/25 13:10:21;;;;;;;1.15;1.02;;;;;;;32.21;21.60;99758.16;6271171;28;20053;-70
2022/07/25 13:13:21;;;;;;;;;;;;;;;32.02;21.54;99752.97;6272270;28;20360;-70
2022/07/25 13:16:22;;;;;;;0.97;0.83;;;;;;;31.92;21.66;99756.25;6271952;28;19921;-72
2022/07/25 13:19:23;;;;;;;;;;;;;;;32.20;23.12;99751.09;6270906;28;20052;-70
2022/07/25 13:22:25;;;;;;;1.52;1.00;;;;;;;31.77;22.55;99750.56;6254069;28;19928;-70
2022/07/25 13:25:27;;;;;;;3.90;1.20;;;;;;;31.82;24.58;99747.97;6270474;28;20049;-72
2022/07/25 13:28:28;;;;;;;3.95;1.02;;;;;;;31.49;22.40;99735.22;6270552;28;20469;-76
2022/07/25 13:31:29;;;;;;;3.40;1.10;;;;;;;31.56;21.19;99735.06;6253848;28;20068;-75
2022/07/25 13:34:30;;;;;;;;;;;;;;;31.71;21.60;99732.66;6254088;28;20492;-74
2022/07/25 13:37:35;;;;;;;4.77;1.07;;;;;;;31.80;22.19;99730.41;6270291;28;19921;-76
2022/07/25 13:40:40;;;;;;;2.58;1.15;;;;;;;31.59;23.29;99721.94;6270106;28;20068;-70
2022/07/25 13:43:43;;;;;;;5.55;1.08;;;;;;;30.97;22.49;99714.44;6270019;28;20056;-73
2022/07/25 13:46:48;;;;;;;1.35;1.00;;;;;;;30.91;22.27;99708.09;6270654;28;20065;-75
2022/07/25 13:49:49;;;;;;;1.52;1.00;;;;;;;31.20;22.91;99707.38;6269578;28;20148;-75
2022/07/25 13:52:50;;;;;;;5.65;1.40;;;;;;;30.85;22.65;99700.94;6253679;28;20490;-74
2022/07/25 13:55:51;;;;;;;;;;;;;;;31.17;22.01;99705.13;6253705;28;20074;-74
2022/07/25 13:58:52;;;;;;;1.00;0.90;;;;;;;30.96;22.79;99699.31;6303701;28;19974;-75
2022/07/25 14:01:54;;;;;;;5.20;0.93;;;;;;;31.19;22.30;99701.13;6269805;28;20052;-75
2022/07/25 14:04:54;;;;;;;;;;;;;;;31.27;24.62;99697.25;6254104;28;20446;-71
2022/07/25 14:07:55;;;;;;;1.48;0.90;;;;;;;31.05;22.49;99699.75;6286789;28;19951;-70
2022/07/25 14:10:56;;;;;;;;;;;;;;;31.11;22.29;99693.41;6286919;28;20415;-71
2022/07/25 14:13:57;;;;;;;1.00;0.90;;;;;;;31.05;24.51;99689.81;6270942;28;20363;-71
2022/07/25 14:16:58;;;;;;;;;;;;;;;30.84;23.64;99691.19;6271765;28;20494;-71
2022/07/25 14:19:59;;;;;;;4.45;1.02;;;;;;;30.66;23.28;99677.84;6303195;28;19921;-76
2022/07/25 14:23:02;;;;;;;5.53;1.05;;;;;;;30.89;25.50;99685.97;6269729;28;20415;-74